Time;durP1;ratioP1;P1;durP2;ratioP2;P2;SDS_P1;SDS_P2;PMS_P1;PMS_P2;Temp;Humidity;BMP_temperature;BMP_pressure;BME280_temperature;BME280_humidity;BME280_pressure;Samples;Min_cycle;Max_cycle;Signal;HPM_P1;HPM_P2
2022/04/02 00:01:49;;;;;;;2.40;0.60;;;12.20;55.20;;;;;;4978675;28;20343;-72
2022/04/02 00:04:14;;;;;;;2.28;0.70;;;12.20;55.30;;;;;;4995674;28;20053;-73
2022/04/02 00:06:40;;;;;;;2.83;0.73;;;12.20;55.20;;;;;;4995778;28;20046;-72
2022/04/02 00:09:06;;;;;;;2.17;0.80;;;12.20;55.10;;;;;;4995906;28;20061;-71
2022/04/02 00:11:32;;;;;;;3.15;0.80;;;12.30;55.00;;;;;;4995905;28;20046;-72
2022/04/02 00:14:00;;;;;;;2.53;0.88;;;12.20;54.90;;;;;;4995863;28;20051;-72
2022/04/02 00:16:26;;;;;;;2.10;0.80;;;12.30;55.20;;;;;;4995889;28;20475;-72
2022/04/02 00:18:52;;;;;;;1.98;0.80;;;12.30;54.70;;;;;;4999368;28;20050;-73
2022/04/02 00:21:18;;;;;;;2.75;0.70;;;12.30;54.70;;;;;;5015173;28;20112;-72
2022/04/02 00:23:46;;;;;;;4.78;0.77;;;12.30;55.30;;;;;;5015028;28;20081;-71
2022/04/02 00:26:15;;;;;;;2.20;0.77;;;12.20;54.60;;;;;;5014929;28;20042;-72
2022/04/02 00:28:42;;;;;;;2.30;1.00;;;12.20;54.60;;;;;;4997902;28;20071;-72
2022/04/02 00:31:10;;;;;;;2.33;0.85;;;12.20;54.60;;;;;;5015061;28;20132;-72
2022/04/02 00:33:37;;;;;;;2.58;0.80;;;12.20;54.60;;;;;;5014957;28;20050;-72
2022/04/02 00:36:04;;;;;;;2.08;0.50;;;12.20;54.70;;;;;;5015249;28;20377;-72
2022/04/02 00:38:30;;;;;;;1.55;0.65;;;12.10;54.80;;;;;;4997648;28;20132;-72
2022/04/02 00:40:56;;;;;;;2.40;0.70;;;12.10;54.80;;;;;;5015570;28;20133;-72
2022/04/02 00:43:25;;;;;;;2.47;1.20;;;12.10;55.10;;;;;;5018997;28;20154;-72
2022/04/02 00:45:52;;;;;;;2.25;1.00;;;12.00;55.10;;;;;;5019193;28;20131;-71
2022/04/02 00:48:20;;;;;;;3.05;0.65;;;12.00;55.40;;;;;;5018926;28;20046;-72
2022/04/02 00:50:47;;;;;;;2.35;0.50;;;11.90;55.20;;;;;;5018556;28;20067;-71
2022/04/02 00:53:15;;;;;;;3.80;0.60;;;11.90;55.10;;;;;;5019167;28;20433;-72
2022/04/02 00:55:44;;;;;;;1.08;0.30;;;11.90;55.00;;;;;;5018920;28;20042;-71
2022/04/02 00:58:11;;;;;;;1.65;0.50;;;11.90;55.00;;;;;;5018657;28;20085;-72
2022/04/02 01:00:40;;;;;;;3.10;0.55;;;11.90;54.80;;;;;;5018611;28;20437;-72
2022/04/02 01:03:07;;;;;;;2.05;0.60;;;11.80;54.80;;;;;;5018350;28;20069;-72
2022/04/02 01:05:35;;;;;;;1.80;0.85;;;11.80;54.80;;;;;;5018326;28;20054;-71
2022/04/02 01:08:05;;;;;;;3.10;0.90;;;11.80;54.70;;;;;;5018357;28;20053;-72
2022/04/02 01:10:35;;;;;;;2.97;0.65;;;11.80;54.50;;;;;;5018333;28;20133;-71
2022/04/02 01:13:01;;;;;;;2.42;0.85;;;11.80;54.40;;;;;;5001064;28;20515;-71
2022/04/02 01:15:27;;;;;;;1.83;0.57;;;11.70;54.30;;;;;;5018425;28;20049;-72
2022/04/02 01:17:53;;;;;;;2.25;0.43;;;11.70;54.60;;;;;;5018290;28;20465;-72
2022/04/02 01:20:19;;;;;;;1.75;0.40;;;11.70;54.20;;;;;;5002274;28;20057;-72
2022/04/02 01:22:46;;;;;;;2.35;0.47;;;11.70;54.20;;;;;;4998924;28;20057;-73
2022/04/02 01:25:12;;;;;;;1.13;0.38;;;11.70;54.30;;;;;;4998480;28;20457;-73
2022/04/02 01:27:37;;;;;;;2.13;0.40;;;11.70;54.20;;;;;;4998559;28;20050;-73
2022/04/02 01:30:05;;;;;;;1.35;0.47;;;11.70;54.20;;;;;;4998399;28;20046;-73
2022/04/02 01:32:31;;;;;;;1.67;0.50;;;11.70;54.10;;;;;;4998040;28;20054;-71
2022/04/02 01:34:57;;;;;;;2.25;0.47;;;11.60;53.90;;;;;;4998175;28;20051;-72
2022/04/02 01:37:23;;;;;;;1.88;0.40;;;11.60;54.00;;;;;;4998315;28;20129;-73
2022/04/02 01:39:49;;;;;;;1.13;0.43;;;11.60;54.00;;;;;;4998155;28;20042;-71
2022/04/02 01:42:20;;;;;;;4.90;0.65;;;11.60;54.00;;;;;;4997927;28;20426;-73
2022/04/02 01:44:51;;;;;;;2.70;0.45;;;11.50;53.80;;;;;;4998066;28;20112;-72
2022/04/02 01:47:18;;;;;;;2.15;0.65;;;11.60;53.90;;;;;;4998566;28;20104;-72
2022/04/02 01:49:44;;;;;;;1.23;0.40;;;11.50;53.80;;;;;;4998373;28;20038;-72
2022/04/02 01:52:11;;;;;;;2.35;0.65;;;11.50;54.00;;;;;;4997480;28;20082;-72
2022/04/02 01:54:37;;;;;;;1.50;0.63;;;11.50;53.90;;;;;;4998017;28;20058;-71
2022/04/02 01:57:03;;;;;;;2.95;0.60;;;11.50;53.60;;;;;;4998059;28;20046;-71
2022/04/02 01:59:29;;;;;;;2.47;0.52;;;11.50;53.70;;;;;;4997733;28;20124;-72
2022/04/02 02:01:55;;;;;;;2.03;0.60;;;11.50;53.70;;;;;;4997891;28;20046;-71
2022/04/02 02:04:20;;;;;;;2.15;0.47;;;11.50;53.50;;;;;;4997757;28;20402;-72
2022/04/02 02:06:46;;;;;;;3.17;0.40;;;11.50;53.30;;;;;;4997766;28;20050;-72
2022/04/02 02:09:12;;;;;;;1.50;0.77;;;11.50;54.30;;;;;;4997187;28;20072;-72
2022/04/02 02:11:39;;;;;;;1.42;0.45;;;11.50;53.20;;;;;;4997725;28;20125;-72
2022/04/02 02:14:05;;;;;;;1.83;0.57;;;11.40;53.10;;;;;;4997675;28;20079;-72
2022/04/02 02:16:31;;;;;;;2.90;0.52;;;11.40;53.00;;;;;;4997686;28;20046;-72
2022/04/02 02:18:57;;;;;;;2.88;0.77;;;11.40;53.40;;;;;;5001879;28;20449;-72
2022/04/02 02:21:22;;;;;;;0.93;0.30;;;11.40;53.30;;;;;;5016882;28;20081;-72
2022/04/02 02:23:48;;;;;;;2.10;0.82;;;11.30;53.40;;;;;;4999618;28;20046;-72
2022/04/02 02:26:14;;;;;;;2.53;0.32;;;11.40;53.50;;;;;;5014144;28;20042;-74
2022/04/02 02:28:41;;;;;;;3.17;0.85;;;11.30;53.20;;;;;;4999713;28;20485;-74
2022/04/02 02:31:07;;;;;;;1.67;0.68;;;11.30;53.30;;;;;;5016723;28;20038;-75
2022/04/02 02:36:17;;;;;;;1.27;0.55;;;11.30;53.40;;;;;;5017007;28;20058;-74
2022/04/02 02:38:44;;;;;;;1.60;0.40;;;11.20;53.30;;;;;;4999297;28;20434;-74
2022/04/02 02:41:10;;;;;;;1.45;0.50;;;11.20;53.40;;;;;;5016365;28;20062;-75
2022/04/02 02:43:37;;;;;;;1.70;0.50;;;11.20;53.40;;;;;;5016537;28;20050;-75
2022/04/02 02:46:03;;;;;;;0.98;0.30;;;11.20;53.40;;;;;;5016424;28;20054;-74
2022/04/02 02:48:28;;;;;;;1.45;0.38;;;11.20;53.50;;;;;;5016635;28;20092;-72
2022/04/02 02:50:54;;;;;;;1.83;0.40;;;11.20;54.20;;;;;;5016484;28;20116;-71
2022/04/02 02:53:20;;;;;;;2.75;0.55;;;11.20;53.20;;;;;;5016478;28;20465;-72
2022/04/02 02:55:48;;;;;;;1.05;0.50;;;11.20;53.40;;;;;;5016400;28;20465;-72
2022/04/02 02:58:14;;;;;;;2.28;0.80;;;11.20;53.20;;;;;;5016682;28;20053;-71
2022/04/02 03:00:40;;;;;;;3.90;0.68;;;11.20;53.30;;;;;;5016468;28;20050;-72
2022/04/02 03:03:06;;;;;;;1.13;0.47;;;11.10;53.40;;;;;;5016155;28;20066;-71
2022/04/02 03:05:32;;;;;;;1.95;0.63;;;11.10;53.50;;;;;;5016277;28;20041;-71
2022/04/02 03:07:58;;;;;;;1.58;0.68;;;11.10;53.50;;;;;;4999111;28;20046;-71
2022/04/02 03:10:29;;;;;;;0.73;0.40;;;11.10;53.40;;;;;;5016252;28;20374;-73
2022/04/02 03:12:57;;;;;;;2.90;0.68;;;11.00;53.40;;;;;;5016114;28;20441;-72
2022/04/02 03:15:24;;;;;;;0.93;0.35;;;11.00;53.40;;;;;;4999124;28;20089;-72
2022/04/02 03:17:51;;;;;;;2.53;0.60;;;11.00;53.40;;;;;;5015860;28;20054;-72
2022/04/02 03:20:19;;;;;;;1.83;0.68;;;11.00;53.20;;;;;;5000444;28;20147;-72
2022/04/02 03:22:47;;;;;;;2.42;0.40;;;11.00;52.90;;;;;;4996269;28;20050;-72
2022/04/02 03:25:16;;;;;;;2.30;0.40;;;11.00;53.00;;;;;;4979727;28;20404;-71
2022/04/02 03:27:43;;;;;;;2.05;0.47;;;11.00;53.10;;;;;;4996530;28;20369;-71
2022/04/02 03:30:11;;;;;;;2.20;0.47;;;11.00;53.00;;;;;;4996613;28;20048;-72
2022/04/02 03:32:37;;;;;;;2.15;0.38;;;10.90;52.90;;;;;;4996460;28;20350;-71
2022/04/02 03:35:04;;;;;;;1.33;0.57;;;10.90;52.90;;;;;;4996049;28;20085;-71
2022/04/02 03:37:31;;;;;;;2.40;0.68;;;10.90;52.90;;;;;;4996313;28;20116;-71
2022/04/02 03:39:57;;;;;;;2.50;0.50;;;10.90;53.10;;;;;;4995828;28;20039;-73
2022/04/02 03:42:23;;;;;;;1.65;0.60;;;10.90;53.10;;;;;;4978610;28;20142;-71
2022/04/02 03:44:49;;;;;;;1.52;0.30;;;10.90;52.90;;;;;;4996069;28;20129;-72
2022/04/02 03:47:15;;;;;;;3.33;0.85;;;10.90;52.70;;;;;;4996094;28;20046;-71
2022/04/02 03:49:46;;;;;;;2.45;0.63;;;10.90;52.70;;;;;;4995662;28;20144;-71
2022/04/02 03:52:13;;;;;;;4.00;0.40;;;10.90;52.70;;;;;;4995641;28;20086;-72
2022/04/02 03:54:39;;;;;;;2.97;0.60;;;10.80;52.60;;;;;;4995641;28;20501;-71
2022/04/02 03:57:06;;;;;;;1.27;0.30;;;10.80;52.80;;;;;;4996247;28;20137;-73
2022/04/02 03:59:32;;;;;;;1.27;0.30;;;10.80;52.90;;;;;;4995840;28;20120;-71
2022/04/02 04:01:58;;;;;;;1.48;0.40;;;10.80;53.00;;;;;;4995842;28;20107;-73
2022/04/02 04:04:25;;;;;;;1.95;0.50;;;10.80;52.80;;;;;;4995657;28;20446;-72
2022/04/02 04:06:52;;;;;;;0.98;0.30;;;10.80;53.00;;;;;;4996434;28;20077;-73
2022/04/02 04:09:18;;;;;;;1.98;0.43;;;10.80;52.70;;;;;;4979196;28;20050;-71
2022/04/02 04:11:44;;;;;;;2.25;0.40;;;10.80;52.70;;;;;;4995616;28;20046;-71
2022/04/02 04:14:10;;;;;;;1.13;0.40;;;10.80;52.70;;;;;;4995991;28;20184;-71
2022/04/02 04:16:36;;;;;;;1.65;0.43;;;10.80;52.70;;;;;;4995251;28;20140;-73
2022/04/02 04:19:02;;;;;;;1.75;0.60;;;10.70;52.60;;;;;;5000843;28;20041;-71
2022/04/02 04:21:28;;;;;;;1.65;0.40;;;10.70;52.70;;;;;;5014715;28;20469;-71
2022/04/02 04:23:54;;;;;;;2.15;0.60;;;10.70;52.70;;;;;;5015498;28;20054;-71
2022/04/02 04:26:20;;;;;;;2.92;0.52;;;10.70;52.80;;;;;;5015018;28;20544;-72
2022/04/02 04:28:46;;;;;;;0.88;0.40;;;10.80;52.80;;;;;;5015304;28;20042;-71
2022/04/02 04:31:17;;;;;;;1.90;0.50;;;10.80;52.50;;;;;;5015214;28;20045;-72
2022/04/02 04:33:43;;;;;;;6.38;0.50;;;10.70;52.70;;;;;;5014993;28;20116;-72
2022/04/02 04:36:10;;;;;;;2.65;0.50;;;10.70;52.70;;;;;;5014875;28;20057;-72
2022/04/02 04:38:35;;;;;;;1.08;0.55;;;10.70;52.60;;;;;;5015145;28;20092;-72
2022/04/02 04:41:02;;;;;;;3.90;0.60;;;10.70;52.60;;;;;;5014593;28;20445;-72
2022/04/02 04:43:28;;;;;;;3.17;0.60;;;10.70;52.80;;;;;;5014950;28;20050;-72
2022/04/02 04:45:57;;;;;;;2.50;0.50;;;10.80;53.00;;;;;;5015060;28;20111;-81
2022/04/02 04:48:23;;;;;;;2.72;0.73;;;10.90;53.80;;;;;;4980635;28;20057;-76
2022/04/02 04:50:49;;;;;;;6.90;1.17;;;11.00;53.70;;;;;;4995218;28;20042;-76
2022/04/02 04:53:15;;;;;;;4.55;1.00;;;11.10;53.20;;;;;;4985400;28;20121;-78
2022/04/02 04:55:41;;;;;;;2.53;0.80;;;11.20;52.10;;;;;;4996473;28;20129;-74
2022/04/02 04:58:07;;;;;;;8.77;1.00;;;11.30;51.40;;;;;;4994650;28;20046;-71
2022/04/02 05:00:33;;;;;;;9.00;1.25;;;11.30;51.10;;;;;;4983133;28;20053;-75
2022/04/02 05:02:59;;;;;;;2.65;0.93;;;11.40;51.70;;;;;;5013621;28;20045;-76
2022/04/02 05:05:27;;;;;;;3.50;0.60;;;11.40;51.70;;;;;;4997195;28;20053;-74
2022/04/02 05:07:53;;;;;;;3.53;0.50;;;11.50;51.20;;;;;;4981111;28;20061;-69
2022/04/02 05:11:00;;;;;;;5.57;0.50;;;11.70;51.00;;;;;;5014712;28;20049;-76
2022/04/02 05:13:26;;;;;;;4.90;0.60;;;12.00;51.00;;;;;;5014885;28;20052;-74
2022/04/02 05:15:52;;;;;;;2.05;0.65;;;12.40;51.50;;;;;;5014797;28;20117;-75
2022/04/02 05:18:17;;;;;;;4.88;0.85;;;12.60;52.10;;;;;;5014468;28;20066;-76
2022/04/02 05:20:43;;;;;;;4.72;1.00;;;12.80;52.80;;;;;;4980924;28;20505;-75
2022/04/02 05:23:09;;;;;;;4.30;0.50;;;13.00;53.40;;;;;;5011534;28;20057;-74
2022/04/02 05:25:35;;;;;;;6.72;0.90;;;13.20;54.00;;;;;;4997553;28;20527;-77
2022/04/02 05:28:05;;;;;;;6.00;0.60;;;13.50;54.00;;;;;;4998017;28;20377;-74
2022/04/02 05:30:39;;;;;;;6.03;0.90;;;13.70;54.10;;;;;;5008826;28;20115;-73
2022/04/02 05:33:06;;;;;;;3.78;1.17;;;13.80;54.10;;;;;;4983747;28;20469;-74
2022/04/02 05:35:32;;;;;;;2.22;0.60;;;14.00;53.90;;;;;;5022795;28;20042;-75
2022/04/02 05:38:15;;;;;;;3.28;0.50;;;14.20;53.80;;;;;;5017493;28;20046;-76
2022/04/02 05:40:47;;;;;;;3.08;0.47;;;14.40;53.70;;;;;;5000252;28;20065;-75
2022/04/02 05:43:14;;;;;;;3.38;0.60;;;14.40;53.40;;;;;;4980888;28;20050;-77
2022/04/02 05:45:39;;;;;;;3.90;0.50;;;14.50;53.20;;;;;;4977555;28;20081;-75
2022/04/02 05:48:05;;;;;;;3.53;0.45;;;14.60;53.10;;;;;;4969439;28;20191;-76
2022/04/02 05:50:31;;;;;;;6.78;0.68;;;14.70;53.80;;;;;;4962184;28;20057;-74
2022/04/02 05:52:57;;;;;;;6.25;0.68;;;14.70;54.50;;;;;;4980834;28;20129;-76
2022/04/02 05:55:26;;;;;;;5.40;0.88;;;14.70;54.70;;;;;;4998315;28;20193;-72
2022/04/02 05:58:12;;;;;;;7.30;1.10;;;14.80;54.80;;;;;;4995103;28;20378;-78
2022/04/02 06:04:19;;;;;;;7.78;0.70;;;14.90;56.50;;;;;;4959425;28;20065;-77
2022/04/02 06:07:07;;;;;;;;;;;;;;;;;;;;;
2022/04/02 06:10:34;;;;;;;7.43;1.10;;;15.00;55.50;;;;;;4961043;28;20086;-75
2022/04/02 06:13:15;;;;;;;2.40;0.63;;;15.10;55.30;;;;;;4962472;28;20065;-75
2022/04/02 06:15:41;;;;;;;3.45;0.55;;;15.10;54.60;;;;;;4961240;28;20038;-77
2022/04/02 06:18:19;;;;;;;2.97;0.45;;;15.20;54.60;;;;;;4978114;28;20039;-74
2022/04/02 06:33:27;;;;;;;4.03;0.60;;;15.60;54.40;;;;;;4788596;29;20050;-76
2022/04/02 06:51:49;;;;;;;9.45;0.70;;;16.10;53.00;;;;;;4685386;30;20053;-74
2022/04/02 07:05:23;;;;;;;3.80;0.50;;;16.40;52.00;;;;;;4822491;29;20118;-73
2022/04/02 07:07:49;;;;;;;4.95;0.50;;;16.50;51.70;;;;;;4867347;28;20485;-74
2022/04/02 07:10:15;;;;;;;4.22;0.68;;;16.60;51.50;;;;;;4996666;28;20327;-72
2022/04/02 07:12:41;;;;;;;1.75;0.30;;;16.70;50.90;;;;;;4996820;28;20054;-75
2022/04/02 07:15:08;;;;;;;4.10;0.70;;;16.80;50.50;;;;;;4980156;28;20085;-73
2022/04/02 07:17:34;;;;;;;3.28;0.57;;;16.80;50.10;;;;;;4978511;28;20113;-75
2022/04/02 07:20:01;;;;;;;5.03;0.50;;;16.90;50.00;;;;;;4993253;28;20046;-74
2022/04/02 07:22:27;;;;;;;7.03;1.20;;;17.00;50.10;;;;;;4976404;28;20065;-75
2022/04/02 07:24:54;;;;;;;2.45;0.40;;;17.00;50.30;;;;;;4996584;28;20050;-75
2022/04/02 07:27:27;;;;;;;9.38;0.82;;;17.00;50.20;;;;;;4963329;28;20339;-76
2022/04/02 07:29:54;;;;;;;3.58;0.65;;;16.90;49.80;;;;;;4978909;28;20047;-75
2022/04/02 07:32:20;;;;;;;4.13;0.75;;;16.90;49.70;;;;;;4971490;28;20531;-74
2022/04/02 07:34:46;;;;;;;3.17;0.68;;;16.80;49.90;;;;;;5015453;28;20085;-76
2022/04/02 07:37:50;;;;;;;7.18;0.68;;;16.80;50.00;;;;;;4979057;28;20078;-76
2022/04/02 07:40:22;;;;;;;5.32;0.55;;;16.90;49.70;;;;;;4980363;28;20051;-75
2022/04/02 07:43:09;;;;;;;9.48;1.23;;;16.90;49.70;;;;;;4994681;28;20133;-78
2022/04/02 07:45:40;;;;;;;7.45;0.70;;;16.40;50.10;;;;;;5013664;28;20113;-75
2022/04/02 07:48:08;;;;;;;5.45;0.55;;;16.40;50.80;;;;;;4982023;28;20138;-75
2022/04/02 07:50:34;;;;;;;3.40;0.82;;;16.40;50.80;;;;;;4997488;28;20073;-74
2022/04/02 07:53:05;;;;;;;3.53;0.55;;;16.50;50.80;;;;;;5015483;28;20330;-77
2022/04/02 07:55:45;;;;;;;5.78;0.52;;;16.50;50.80;;;;;;5015593;28;20438;-76
2022/04/02 07:58:14;;;;;;;9.32;0.90;;;16.50;50.90;;;;;;4982834;28;20048;-76
2022/04/02 08:00:40;;;;;;;2.92;0.40;;;16.50;51.00;;;;;;4981295;28;20064;-77
2022/04/02 08:03:09;;;;;;;2.92;0.57;;;16.50;50.90;;;;;;4979108;28;20434;-76
2022/04/02 08:05:35;;;;;;;5.35;0.60;;;16.40;50.90;;;;;;4962522;28;20034;-76
2022/04/02 08:08:07;;;;;;;3.13;0.60;;;16.40;50.90;;;;;;4977805;28;20442;-76
2022/04/02 08:10:34;;;;;;;7.38;0.68;;;16.40;50.90;;;;;;4976176;28;20042;-77
2022/04/02 08:13:01;;;;;;;3.15;0.30;;;16.40;50.90;;;;;;4962581;28;20046;-75
2022/04/02 08:15:29;;;;;;;5.00;0.60;;;16.40;50.90;;;;;;4962877;28;20049;-77
2022/04/02 08:17:56;;;;;;;4.93;0.60;;;16.40;51.20;;;;;;4976274;28;20454;-75
2022/04/02 08:20:23;;;;;;;5.15;0.60;;;16.30;51.30;;;;;;4995214;28;20056;-77
2022/04/02 08:22:50;;;;;;;5.30;1.02;;;16.30;51.40;;;;;;4983732;28;20045;-76
2022/04/02 08:25:16;;;;;;;3.35;0.50;;;16.30;51.60;;;;;;5006592;28;20068;-74
2022/04/02 08:27:54;;;;;;;8.65;0.65;;;16.30;51.70;;;;;;5013173;28;20056;-76
2022/04/02 08:31:18;;;;;;;2.55;0.40;;;16.40;51.80;;;;;;5014405;28;20041;-75
2022/04/02 08:34:13;;;;;;;5.82;0.45;;;16.30;51.00;;;;;;4961196;28;20136;-74
2022/04/02 08:36:54;;;;;;;5.78;0.65;;;16.30;51.60;;;;;;4977981;28;20057;-75
2022/04/02 08:39:49;;;;;;;7.03;1.20;;;16.40;51.70;;;;;;4976557;28;20069;-77
2022/04/02 08:42:29;;;;;;;7.53;0.70;;;16.40;52.20;;;;;;4972855;28;20450;-75
2022/04/02 08:45:13;;;;;;;7.90;0.93;;;16.40;52.00;;;;;;4997813;28;20093;-74
2022/04/02 08:48:12;;;;;;;7.72;1.15;;;16.50;52.30;;;;;;4995219;28;20035;-74
2022/04/02 08:50:45;;;;;;;9.93;0.95;;;16.40;52.00;;;;;;4995329;28;20046;-75
2022/04/02 08:53:35;;;;;;;10.05;0.88;;;16.40;52.10;;;;;;4995174;28;20446;-74
2022/04/02 08:56:06;;;;;;;7.07;0.80;;;16.40;52.40;;;;;;4989326;28;20052;-75
2022/04/02 08:59:00;;;;;;;11.93;1.52;;;16.40;52.30;;;;;;5014906;28;20107;-73
2022/04/02 09:01:34;;;;;;;5.95;0.63;;;16.40;52.00;;;;;;5015228;28;20341;-76
2022/04/02 09:04:30;;;;;;;4.75;0.70;;;16.40;51.80;;;;;;5001767;28;20053;-75
2022/04/02 09:07:14;;;;;;;7.95;0.85;;;16.40;51.70;;;;;;4994967;28;20054;-74
2022/04/02 09:09:57;;;;;;;4.95;0.88;;;16.40;51.80;;;;;;5018389;28;20054;-76
2022/04/02 09:12:34;;;;;;;3.97;0.40;;;16.40;51.60;;;;;;5019169;28;20065;-75
2022/04/02 09:15:10;;;;;;;2.88;0.50;;;16.40;51.60;;;;;;5019195;28;20046;-73
2022/04/02 09:17:37;;;;;;;3.85;0.73;;;16.40;51.30;;;;;;5001872;28;20472;-72
2022/04/02 09:20:27;;;;;;;4.85;0.60;;;16.40;51.20;;;;;;5001285;28;20049;-73
2022/04/02 09:23:31;;;;;;;4.60;0.68;;;16.50;51.00;;;;;;4994592;28;20065;-75
2022/04/02 09:26:34;;;;;;;4.15;0.73;;;16.50;51.00;;;;;;4974904;28;20358;-74
2022/04/02 09:29:36;;;;;;;4.07;0.38;;;16.50;50.90;;;;;;4999101;28;20357;-77
2022/04/02 09:32:20;;;;;;;3.70;0.68;;;16.50;50.80;;;;;;4998534;28;20042;-74
2022/04/02 09:35:03;;;;;;;5.78;0.55;;;16.50;50.90;;;;;;4998301;28;20112;-75
2022/04/02 09:37:41;;;;;;;2.78;0.40;;;16.50;50.70;;;;;;4998452;28;20054;-75
2022/04/02 09:40:10;;;;;;;2.83;0.50;;;16.50;50.80;;;;;;4998434;28;20046;-72
2022/04/02 09:42:37;;;;;;;1.33;0.30;;;16.50;50.70;;;;;;4981491;28;20470;-74
2022/04/02 09:45:09;;;;;;;2.28;0.35;;;16.60;50.60;;;;;;4998597;28;20050;-75
2022/04/02 09:48:09;;;;;;;2.17;0.30;;;16.60;50.60;;;;;;4995293;28;20077;-73
2022/04/02 09:50:35;;;;;;;1.83;0.40;;;16.60;50.50;;;;;;4997995;28;20054;-75
2022/04/02 09:53:07;;;;;;;2.20;0.35;;;16.50;50.60;;;;;;4997915;28;20046;-73
2022/04/02 09:56:03;;;;;;;6.85;0.63;;;16.50;50.60;;;;;;5008725;28;20041;-75
2022/04/02 09:58:48;;;;;;;2.28;0.50;;;16.50;50.60;;;;;;5000452;28;20064;-78
2022/04/02 10:01:48;;;;;;;2.55;0.40;;;16.60;50.50;;;;;;4979275;28;20052;-75
2022/04/02 10:04:41;;;;;;;3.20;0.60;;;16.50;50.00;;;;;;4997733;28;20361;-75
2022/04/02 10:07:35;;;;;;;5.25;0.80;;;16.40;49.50;;;;;;4964607;28;20034;-79
2022/04/02 10:10:02;;;;;;;4.73;0.30;;;16.40;49.40;;;;;;4997508;28;20093;-75
2022/04/02 10:12:36;;;;;;;12.10;1.13;;;16.40;49.70;;;;;;4980551;28;20120;-76
2022/04/02 10:15:05;;;;;;;5.32;1.02;;;16.50;49.80;;;;;;4996544;28;20117;-77
2022/04/02 10:17:39;;;;;;;10.30;1.00;;;16.30;46.30;;;;;;4980360;28;20042;-77
2022/04/02 10:20:06;;;;;;;7.80;1.00;;;16.30;49.70;;;;;;4997723;28;20050;-79
2022/04/02 10:22:37;;;;;;;7.22;1.33;;;16.30;50.50;;;;;;4979998;28;20042;-75
2022/04/02 10:25:07;;;;;;;10.80;1.10;;;16.30;50.80;;;;;;4997541;28;20170;-78
2022/04/02 10:27:35;;;;;;;8.05;1.00;;;16.40;51.20;;;;;;4997351;28;20362;-76
2022/04/02 10:30:01;;;;;;;7.72;0.40;;;16.40;51.40;;;;;;4980102;28;20053;-77
2022/04/02 10:32:38;;;;;;;5.50;0.45;;;16.50;51.40;;;;;;4997219;28;20125;-77
2022/04/02 10:35:07;;;;;;;4.68;0.70;;;16.60;51.60;;;;;;4997129;28;20129;-76
2022/04/02 10:37:43;;;;;;;8.25;0.47;;;16.70;51.60;;;;;;4997169;28;20193;-75
2022/04/02 10:40:16;;;;;;;4.63;0.55;;;16.70;51.30;;;;;;4980048;28;20123;-77
2022/04/02 10:42:50;;;;;;;3.17;0.50;;;16.80;51.30;;;;;;4980025;28;20054;-75
2022/04/02 10:45:18;;;;;;;4.18;0.50;;;16.80;51.70;;;;;;5007746;28;20375;-75
2022/04/02 10:48:06;;;;;;;4.72;0.60;;;16.90;51.90;;;;;;4996849;28;20373;-76
2022/04/02 10:50:32;;;;;;;6.55;0.63;;;16.90;52.40;;;;;;4996791;28;20181;-76
2022/04/02 10:53:02;;;;;;;3.13;0.50;;;17.00;53.00;;;;;;4997070;28;20053;-75
2022/04/02 10:55:29;;;;;;;2.95;0.55;;;17.00;53.30;;;;;;5013059;28;20120;-74
2022/04/02 10:57:59;;;;;;;6.00;0.93;;;17.00;53.60;;;;;;4980060;28;20509;-76
2022/04/02 11:00:29;;;;;;;4.70;0.50;;;17.00;53.70;;;;;;4996785;28;20151;-75
2022/04/02 11:03:03;;;;;;;4.43;0.43;;;16.90;54.80;;;;;;5012446;28;20054;-77
2022/04/02 11:05:38;;;;;;;13.60;1.08;;;17.00;54.20;;;;;;4997759;28;20085;-77
2022/04/02 11:08:12;;;;;;;8.07;0.93;;;17.00;54.50;;;;;;5007439;28;20684;-77
2022/04/02 11:10:38;;;;;;;9.30;0.70;;;17.00;54.90;;;;;;4996421;28;20090;-78
2022/04/02 11:13:08;;;;;;;4.47;0.68;;;17.00;55.00;;;;;;5012046;28;20082;-78
2022/04/02 11:15:40;;;;;;;8.32;1.65;;;16.90;55.20;;;;;;4996704;28;20156;-77
2022/04/02 11:18:16;;;;;;;11.35;1.02;;;16.90;55.30;;;;;;4979505;28;20082;-77
2022/04/02 11:20:42;;;;;;;10.10;1.20;;;16.90;55.40;;;;;;4993538;28;20073;-75
2022/04/02 11:23:34;;;;;;;10.18;1.08;;;16.90;55.40;;;;;;4997001;28;20056;-74
2022/04/02 11:26:04;;;;;;;14.45;1.48;;;16.90;55.50;;;;;;4996531;28;20105;-75
2022/04/02 11:28:43;;;;;;;16.52;1.65;;;16.90;55.70;;;;;;4997065;28;20054;-75
2022/04/02 11:32:15;;;;;;;16.48;1.48;;;16.80;55.70;;;;;;4963871;28;20042;-77
2022/04/02 11:34:42;;;;;;;5.78;0.93;;;16.80;54.80;;;;;;4962862;28;20051;-77
2022/04/02 11:37:13;;;;;;;12.60;1.10;;;16.40;51.70;;;;;;4995494;28;20378;-76
2022/04/02 11:39:53;;;;;;;9.70;1.00;;;16.50;53.00;;;;;;5012479;28;20486;-75
2022/04/02 11:42:25;;;;;;;6.07;1.00;;;16.50;52.90;;;;;;4998609;28;20053;-74
2022/04/02 11:44:56;;;;;;;8.85;1.45;;;16.50;53.10;;;;;;5015656;28;20041;-75
2022/04/02 11:47:28;;;;;;;9.02;1.00;;;16.50;53.30;;;;;;5015114;28;20377;-76
2022/04/02 11:50:02;;;;;;;12.15;1.27;;;16.50;53.30;;;;;;5015628;28;20065;-74
2022/04/02 11:52:27;;;;;;;6.13;0.55;;;16.50;53.70;;;;;;5018082;28;20381;-78
2022/04/02 11:54:53;;;;;;;8.32;0.57;;;16.50;53.80;;;;;;5035263;28;20049;-78
2022/04/02 11:57:19;;;;;;;9.25;1.15;;;16.40;53.90;;;;;;5035276;28;20379;-79
2022/04/02 11:59:56;;;;;;;9.70;1.38;;;16.40;54.00;;;;;;5035193;28;20038;-77
2022/04/02 12:02:42;;;;;;;7.70;0.98;;;16.30;53.80;;;;;;5020113;28;20050;-76
2022/04/02 12:05:14;;;;;;;11.52;1.20;;;16.30;54.40;;;;;;5015285;28;20045;-77
2022/04/02 12:07:44;;;;;;;10.75;1.27;;;16.30;54.40;;;;;;5015326;28;20052;-75
2022/04/02 12:10:13;;;;;;;8.60;1.20;;;16.20;54.20;;;;;;5015407;28;20104;-78
2022/04/02 12:12:50;;;;;;;7.25;0.88;;;16.20;54.20;;;;;;4997331;28;20120;-76
2022/04/02 12:15:17;;;;;;;10.18;1.08;;;16.10;54.90;;;;;;5014461;28;20042;-75
2022/04/02 12:17:51;;;;;;;7.55;1.08;;;16.10;55.40;;;;;;5015289;28;20117;-76
2022/04/02 12:20:30;;;;;;;;;;;16.00;54.90;;;;;;5015616;28;20042;-75
2022/04/02 12:23:08;;;;;;;9.70;1.30;;;15.80;55.40;;;;;;4997931;28;19921;-77
2022/04/02 12:25:34;;;;;;;7.40;1.00;;;15.80;55.40;;;;;;5014858;28;20049;-78
2022/04/02 12:28:07;;;;;;;7.35;1.23;;;15.80;55.20;;;;;;4997795;28;20061;-78
2022/04/02 12:30:35;;;;;;;;;;;15.90;55.00;;;;;;5015629;28;20100;-76
2022/04/02 12:33:07;;;;;;;5.35;1.02;;;15.90;54.70;;;;;;4979834;28;19922;-77
2022/04/02 12:35:33;;;;;;;7.78;0.75;;;15.90;54.60;;;;;;4995425;28;20043;-77
2022/04/02 12:38:03;;;;;;;3.38;0.50;;;15.90;54.40;;;;;;4998777;28;20054;-75
2022/04/02 12:40:39;;;;;;;3.03;0.85;;;15.90;54.40;;;;;;4999153;28;20133;-75
2022/04/02 12:43:08;;;;;;;7.00;0.70;;;15.90;54.30;;;;;;4982417;28;20046;-77
2022/04/02 12:45:36;;;;;;;3.08;0.50;;;15.90;54.30;;;;;;5014135;28;20473;-74
2022/04/02 12:48:17;;;;;;;4.05;0.63;;;15.90;54.20;;;;;;4981858;28;20078;-77
2022/04/02 12:50:59;;;;;;;5.97;0.63;;;15.90;54.30;;;;;;4998769;28;20050;-77
2022/04/02 12:53:31;;;;;;;6.53;0.95;;;15.90;54.30;;;;;;4999655;28;20072;-75
2022/04/02 12:56:01;;;;;;;4.28;0.68;;;15.90;54.50;;;;;;4992834;28;20054;-74
2022/04/02 12:58:41;;;;;;;4.22;0.80;;;15.90;54.70;;;;;;4990975;28;20056;-76
2022/04/02 13:01:11;;;;;;;2.97;0.40;;;15.90;55.10;;;;;;4997160;28;20058;-79
2022/04/02 13:04:06;;;;;;;4.15;0.82;;;15.90;56.00;;;;;;5017129;28;20053;-76
2022/04/02 13:06:34;;;;;;;5.05;0.73;;;15.80;55.20;;;;;;5000810;28;20056;-74
2022/04/02 13:09:04;;;;;;;5.63;0.90;;;15.70;56.10;;;;;;5018254;28;20042;-77
2022/04/02 13:11:55;;;;;;;1.98;0.50;;;15.70;56.40;;;;;;5017952;28;20058;-77
2022/04/02 13:14:33;;;;;;;1.77;0.35;;;15.70;57.20;;;;;;5018478;28;20057;-74
2022/04/02 13:17:13;;;;;;;3.60;0.60;;;15.80;56.50;;;;;;5018834;28;20409;-74
2022/04/02 13:22:57;;;;;;;3.17;0.50;;;15.90;56.50;;;;;;5017693;28;20358;-75
2022/04/02 13:25:29;;;;;;;2.25;0.30;;;15.70;54.80;;;;;;5001353;28;20049;-76
2022/04/02 13:28:12;;;;;;;9.63;0.90;;;15.80;55.40;;;;;;5017734;28;20060;-75
2022/04/02 13:30:39;;;;;;;6.88;0.63;;;15.80;52.60;;;;;;5001102;28;20423;-74
2022/04/02 13:33:42;;;;;;;7.43;0.90;;;15.80;55.90;;;;;;4995827;28;20058;-75
2022/04/02 13:36:38;;;;;;;4.68;0.70;;;15.80;56.40;;;;;;4980823;28;20051;-74
2022/04/02 13:39:09;;;;;;;7.25;0.73;;;15.90;56.50;;;;;;4981375;28;20129;-75
2022/04/02 13:41:42;;;;;;;3.78;0.70;;;16.00;57.10;;;;;;4998187;28;20454;-76
2022/04/02 13:44:19;;;;;;;4.65;0.75;;;15.90;57.30;;;;;;4980891;28;20477;-74
2022/04/02 13:46:52;;;;;;;4.72;1.08;;;15.90;57.40;;;;;;4997889;28;20389;-74
2022/04/02 13:49:30;;;;;;;6.40;0.57;;;15.90;57.80;;;;;;4996794;28;20054;-73
2022/04/02 13:51:59;;;;;;;9.25;0.70;;;16.00;58.30;;;;;;4981213;28;20065;-73
2022/04/02 13:54:33;;;;;;;5.63;0.70;;;15.90;58.60;;;;;;5001627;28;20132;-76
2022/04/02 13:57:12;;;;;;;6.68;0.90;;;15.90;58.90;;;;;;5028095;28;20049;-74
2022/04/02 14:00:10;;;;;;;4.80;0.65;;;15.90;59.20;;;;;;5017220;28;20083;-74
2022/04/02 14:02:38;;;;;;;4.15;0.40;;;15.80;60.10;;;;;;4996245;28;20050;-75